Time;durP1;ratioP1;P1;durP2;ratioP2;P2;SDS_P1;SDS_P2;PMS_P1;PMS_P2;Temp;Humidity;BMP_temperature;BMP_pressure;BME280_temperature;BME280_humidity;BME280_pressure;Samples;Min_cycle;Max_cycle;Signal;HPM_P1;HPM_P2
2022/03/24 00:00:19;;;;;;;;;;;;;;;7.81;34.84;99127.28;1770466;79;20236;-84
2022/03/24 00:02:47;;;;;;;;;;;;;;;7.70;34.97;99119.13;1768693;80;20230;-84
2022/03/24 00:05:13;;;;;;;;;;;;;;;7.66;35.07;99124.56;1766820;80;21382;-85
2022/03/24 00:07:39;;;;;;;;;;;;;;;7.62;35.14;99127.78;1773143;80;24425;-84
2022/03/24 00:10:05;;;;;;;;;;;;;;;7.60;35.24;99130.91;1740653;80;20494;-84
2022/03/24 00:12:32;;;;;;;;;;;;;;;7.50;35.38;99123.13;1765098;80;24743;-84
2022/03/24 00:14:57;;;;;;;;;;;;;;;7.41;35.47;99126.17;1764767;80;22001;-85
2022/03/24 00:17:24;;;;;;;;;;;;;;;7.38;35.55;99126.30;1769659;80;21162;-85
2022/03/24 00:19:50;;;;;;;;;;;;;;;7.37;35.64;99125.91;1766080;79;24534;-84
2022/03/24 00:22:16;;;;;;;;;;;;;;;7.37;35.71;99127.20;1770728;80;20313;-84
2022/03/24 00:24:42;;;;;;;;;;;;;;;7.36;35.79;99123.78;1767973;80;20255;-84
2022/03/24 00:27:09;;;;;;;;;;;;;;;7.34;35.88;99125.61;1770233;80;22135;-84
2022/03/24 00:29:38;;;;;;;;;;;;;;;7.28;35.97;99118.52;1762854;80;26215;-84
2022/03/24 00:32:05;;;;;;;;;;;;;;;7.23;36.08;99117.89;1769400;80;24503;-85
2022/03/24 00:34:33;;;;;;;;;;;;;;;7.23;36.17;99106.17;1766597;80;20163;-84
2022/03/24 00:37:02;;;;;;;;;;;;;;;7.26;36.25;99110.77;1770464;80;24803;-85
2022/03/24 00:39:33;;;;;;;;;;;;;;;7.29;36.31;99104.59;1767356;80;22205;-85
2022/03/24 00:42:00;;;;;;;;;;;;;;;7.29;36.36;99104.59;1768617;80;25442;-85
2022/03/24 00:44:29;;;;;;;;;;;;;;;7.29;36.44;99112.41;1767800;80;24480;-84
2022/03/24 00:46:57;;;;;;;;;;;;;;;7.28;36.53;99107.66;1775792;80;20161;-84
2022/03/24 00:49:23;;;;;;;;;;;;;;;7.24;36.61;99108.72;1771110;80;24799;-84
2022/03/24 00:51:49;;;;;;;;;;;;;;;7.24;36.69;99107.42;1770672;80;20265;-84
2022/03/24 00:54:16;;;;;;;;;;;;;;;7.22;36.75;99100.58;1764021;80;20971;-85
2022/03/24 00:56:43;;;;;;;;;;;;;;;7.24;36.83;99100.06;1774684;80;24566;-85
2022/03/24 00:59:09;;;;;;;;;;;;;;;7.24;36.91;99098.31;1767474;80;20163;-85
2022/03/24 01:01:39;;;;;;;;;;;;;;;7.25;36.96;99102.61;1768192;79;20271;-84
2022/03/24 01:04:03;;;;;;;;;;;;;;;7.29;37.02;99106.75;1772206;79;22096;-85
2022/03/24 01:06:29;;;;;;;;;;;;;;;7.34;37.07;99101.33;1775618;79;26005;-85
2022/03/24 01:08:55;;;;;;;;;;;;;;;7.31;37.14;99099.69;1779585;79;20290;-85
2022/03/24 01:11:21;;;;;;;;;;;;;;;7.22;37.18;99099.27;1782178;79;20575;-85
2022/03/24 01:13:47;;;;;;;;;;;;;;;7.15;37.26;99094.34;1752401;79;20321;-85
2022/03/24 01:16:13;;;;;;;;;;;;;;;7.11;37.30;99094.11;1775213;79;21985;-85
2022/03/24 01:18:40;;;;;;;;;;;;;;;7.07;37.36;99093.86;1782174;79;26049;-85
2022/03/24 01:21:07;;;;;;;;;;;;;;;7.07;37.38;99092.56;1773416;79;24424;-84
2022/03/24 01:23:33;;;;;;;;;;;;;;;7.07;37.41;99099.52;1716026;82;20537;-85
2022/03/24 01:26:00;;;;;;;;;;;;;;;7.09;37.48;99094.62;1773830;79;24742;-85
2022/03/24 01:28:27;;;;;;;;;;;;;;;7.06;37.52;99090.02;1720442;82;22939;-84
2022/03/24 01:30:54;;;;;;;;;;;;;;;7.09;37.56;99088.11;1721424;82;26075;-85
2022/03/24 01:33:22;;;;;;;;;;;;;;;7.14;37.56;99085.33;1774339;79;24447;-85
2022/03/24 01:35:49;;;;;;;;;;;;;;;7.20;37.60;99088.11;1767187;79;20537;-85
2022/03/24 01:38:16;;;;;;;;;;;;;;;7.24;37.57;99090.95;1774234;79;24795;-86
2022/03/24 01:40:44;;;;;;;;;;;;;;;7.31;37.55;99093.19;1767713;79;22061;-85
2022/03/24 01:43:11;;;;;;;;;;;;;;;7.37;37.54;99082.94;1710540;83;26805;-85
2022/03/24 01:45:39;;;;;;;;;;;;;;;7.43;37.52;99086.56;1774039;79;24433;-85
2022/03/24 01:48:08;;;;;;;;;;;;;;;7.44;37.53;99082.59;1786037;79;20143;-85
2022/03/24 01:50:34;;;;;;;;;;;;;;;7.45;37.50;99082.14;1708752;83;25401;-85
2022/03/24 01:53:00;;;;;;;;;;;;;;;7.47;37.48;99082.92;1772783;79;22134;-85
2022/03/24 01:55:25;;;;;;;;;;;;;;;7.50;37.49;99081.47;1780338;79;21025;-85
2022/03/24 01:57:52;;;;;;;;;;;;;;;7.52;37.50;99083.55;1776712;79;24471;-85
2022/03/24 02:00:19;;;;;;;;;;;;;;;7.54;37.49;99082.55;1775410;79;20159;-85
2022/03/24 02:02:48;;;;;;;;;;;;;;;7.58;37.50;99081.97;1773096;79;25414;-84
2022/03/24 02:05:14;;;;;;;;;;;;;;;7.59;37.49;99077.11;1764381;80;22093;-84
2022/03/24 02:07:42;;;;;;;;;;;;;;;7.60;37.50;99081.41;1779318;79;26729;-85
2022/03/24 02:10:08;;;;;;;;;;;;;;;7.60;37.50;99085.78;1778004;80;24683;-84
2022/03/24 02:12:34;;;;;;;;;;;;;;;7.61;37.53;99084.41;1776834;80;20460;-85
2022/03/24 02:15:09;;;;;;;;;;;;;;;7.61;37.55;99081.80;1771246;80;24800;-84
2022/03/24 02:17:32;;;;;;;;;;;;;;;7.61;37.55;99087.02;1772345;80;22116;-85
2022/03/24 02:19:58;;;;;;;;;;;;;;;7.58;37.56;99080.17;1777672;80;26796;-85
2022/03/24 02:22:28;;;;;;;;;;;;;;;7.58;37.57;99087.63;1777292;80;20276;-85
2022/03/24 02:24:54;;;;;;;;;;;;;;;7.60;37.59;99087.08;1774916;80;20457;-85
2022/03/24 02:27:22;;;;;;;;;;;;;;;7.61;37.64;99087.47;1779006;80;24858;-85
2022/03/24 02:29:49;;;;;;;;;;;;;;;7.62;37.69;99076.98;1717610;83;22696;-85
2022/03/24 02:32:19;;;;;;;;;;;;;;;7.65;37.68;99080.73;1771366;80;26104;-85
2022/03/24 02:34:50;;;;;;;;;;;;;;;7.64;37.72;99080.34;1777169;80;24483;-84
2022/03/24 02:37:19;;;;;;;;;;;;;;;7.65;37.74;99085.09;1775442;79;20210;-85
2022/03/24 02:39:50;;;;;;;;;;;;;;;7.64;37.72;99082.95;1784645;80;25371;-86
2022/03/24 02:42:18;;;;;;;;;;;;;;;7.59;37.72;99087.53;1773090;80;21994;-86
2022/03/24 02:44:45;;;;;;;;;;;;;;;7.56;37.74;99083.33;1760981;80;25915;-85
2022/03/24 02:47:12;;;;;;;;;;;;;;;7.52;37.79;99086.16;1783044;79;25793;-84
2022/03/24 02:49:39;;;;;;;;;;;;;;;7.49;37.83;99090.19;1776501;80;20169;-85
2022/03/24 02:52:06;;;;;;;;;;;;;;;7.41;37.85;99089.27;1767156;80;25525;-85
2022/03/24 02:54:32;;;;;;;;;;;;;;;7.36;37.89;99085.19;1753607;79;21799;-84
2022/03/24 02:56:59;;;;;;;;;;;;;;;7.34;37.91;99088.30;1771030;80;26026;-85
2022/03/24 02:59:25;;;;;;;;;;;;;;;7.31;37.93;99081.95;1778750;80;24493;-85
2022/03/24 03:01:54;;;;;;;;;;;;;;;7.27;37.93;99082.98;1771394;80;20177;-85
2022/03/24 03:04:21;;;;;;;;;;;;;;;7.25;37.94;99082.23;1705310;83;24731;-85
2022/03/24 03:06:47;;;;;;;;;;;;;;;7.21;37.96;99087.17;1749667;80;22531;-85
2022/03/24 03:09:16;;;;;;;;;;;;;;;7.11;38.04;99090.20;1764425;80;26008;-85
2022/03/24 03:11:44;;;;;;;;;;;;;;;6.97;38.08;99093.89;1777365;79;25358;-85
2022/03/24 03:14:11;;;;;;;;;;;;;;;6.86;38.17;99095.28;1770998;80;20193;-84
2022/03/24 03:16:38;;;;;;;;;;;;;;;6.80;38.27;99095.55;1772905;80;24794;-84
2022/03/24 03:19:04;;;;;;;;;;;;;;;6.73;38.38;99097.56;1767390;80;21891;-84
2022/03/24 03:21:31;;;;;;;;;;;;;;;6.63;38.48;99089.33;1771325;80;26005;-85
2022/03/24 03:23:56;;;;;;;;;;;;;;;6.56;38.58;99093.09;1766379;80;24437;-85
2022/03/24 03:26:24;;;;;;;;;;;;;;;6.46;38.69;99089.20;1774589;80;20171;-85
2022/03/24 03:28:52;;;;;;;;;;;;;;;6.37;38.80;99087.45;1771165;80;24812;-84
2022/03/24 03:31:20;;;;;;;;;;;;;;;6.24;38.90;99090.56;1765728;80;22068;-85
2022/03/24 03:33:46;;;;;;;;;;;;;;;6.08;39.02;99097.76;1765121;79;26071;-84
2022/03/24 03:36:12;;;;;;;;;;;;;;;5.90;39.17;99103.23;1763597;80;24404;-84
2022/03/24 03:38:39;;;;;;;;;;;;;;;5.74;39.29;99113.81;1751867;80;20179;-84
2022/03/24 03:41:06;;;;;;;;;;;;;;;5.57;39.40;99109.28;1760722;80;24967;-85
2022/03/24 03:43:35;;;;;;;;;;;;;;;5.47;39.50;99116.58;1772005;80;22035;-85
2022/03/24 03:46:01;;;;;;;;;;;;;;;5.46;39.64;99120.08;1773972;80;26068;-85
2022/03/24 03:48:27;;;;;;;;;;;;;;;5.42;39.75;99118.96;1767842;80;20496;-85
2022/03/24 03:50:53;;;;;;;;;;;;;;;5.38;39.87;99124.73;1772578;80;20153;-84
2022/03/24 03:53:19;;;;;;;;;;;;;;;5.35;39.98;99126.58;1766258;80;20247;-84
2022/03/24 03:55:45;;;;;;;;;;;;;;;5.34;40.09;99115.83;1765563;80;22051;-84
2022/03/24 03:58:11;;;;;;;;;;;;;;;5.34;40.22;99111.94;1761543;80;21020;-85
2022/03/24 04:00:52;;;;;;;;;;;;;;;5.34;40.32;99108.89;1768212;80;24571;-84
2022/03/24 04:03:23;;;;;;;;;;;;;;;5.34;40.44;99112.78;1776570;79;20308;-85
2022/03/24 04:05:51;;;;;;;;;;;;;;;5.41;40.56;99112.92;1780812;79;24866;-86
2022/03/24 04:08:17;;;;;;;;;;;;;;;5.41;40.64;99122.00;1776204;79;21961;-85
2022/03/24 04:10:43;;;;;;;;;;;;;;;5.39;40.73;99127.73;1777610;79;21105;-85
2022/03/24 04:13:10;;;;;;;;;;;;;;;5.30;40.80;99122.86;1767629;79;24669;-86
2022/03/24 04:15:37;;;;;;;;;;;;;;;5.26;40.85;99125.19;1777648;79;20228;-85
2022/03/24 04:18:03;;;;;;;;;;;;;;;5.28;40.94;99126.44;1778027;79;24768;-85
2022/03/24 04:20:29;;;;;;;;;;;;;;;5.32;41.01;99124.96;1779143;79;22198;-85
2022/03/24 04:22:57;;;;;;;;;;;;;;;5.34;41.04;99132.25;1770285;79;26035;-85
2022/03/24 04:25:23;;;;;;;;;;;;;;;5.37;41.13;99136.02;1777345;79;25134;-85
2022/03/24 04:27:49;;;;;;;;;;;;;;;5.41;41.20;99133.69;1773577;79;20172;-85
2022/03/24 04:30:17;;;;;;;;;;;;;;;5.50;41.27;99130.36;1775666;79;24816;-85
2022/03/24 04:32:44;;;;;;;;;;;;;;;5.56;41.35;99139.22;1775696;79;22889;-85
2022/03/24 04:35:11;;;;;;;;;;;;;;;5.60;41.37;99134.30;1777890;79;26108;-85
2022/03/24 04:37:37;;;;;;;;;;;;;;;5.63;41.43;99138.05;1772058;79;24471;-84
2022/03/24 04:40:05;;;;;;;;;;;;;;;5.64;41.44;99138.45;1776343;79;20257;-84
2022/03/24 04:42:33;;;;;;;;;;;;;;;5.60;41.45;99139.03;1777169;79;25711;-84
2022/03/24 04:44:59;;;;;;;;;;;;;;;5.51;41.47;99143.74;1769225;79;22053;-84
2022/03/24 04:47:25;;;;;;;;;;;;;;;5.42;41.50;99143.17;1770583;79;26032;-83
2022/03/24 04:49:51;;;;;;;;;;;;;;;5.36;41.54;99150.34;1772207;79;24478;-84
2022/03/24 04:52:17;;;;;;;;;;;;;;;5.26;41.60;99143.80;1768198;79;20179;-84
2022/03/24 04:54:43;;;;;;;;;;;;;;;5.19;41.63;99144.91;1709799;83;24746;-84
2022/03/24 04:57:09;;;;;;;;;;;;;;;5.16;41.68;99148.48;1743821;81;20627;-84
2022/03/24 04:59:35;;;;;;;;;;;;;;;5.15;41.74;99147.23;1740686;82;25970;-84
2022/03/24 05:02:01;;;;;;;;;;;;;;;5.15;41.82;99144.64;1741057;82;20333;-84
2022/03/24 05:04:29;;;;;;;;;;;;;;;5.10;41.87;99147.41;1727810;82;20573;-84
2022/03/24 05:06:56;;;;;;;;;;;;;;;5.03;41.92;99144.19;1774586;79;24873;-85
2022/03/24 05:09:22;;;;;;;;;;;;;;;5.02;41.99;99148.13;1777038;80;22035;-85
2022/03/24 05:11:47;;;;;;;;;;;;;;;5.00;42.04;99149.95;1774023;80;21023;-85
2022/03/24 05:14:13;;;;;;;;;;;;;;;4.99;42.13;99156.03;1779240;80;20350;-85
2022/03/24 05:16:39;;;;;;;;;;;;;;;4.94;42.19;99153.61;1774982;80;20253;-84
2022/03/24 05:19:06;;;;;;;;;;;;;;;4.90;42.26;99158.52;1778225;80;20198;-85
2022/03/24 05:21:32;;;;;;;;;;;;;;;4.90;42.33;99156.37;1774423;80;22177;-85
2022/03/24 05:23:59;;;;;;;;;;;;;;;4.88;42.42;99154.27;1777615;80;26087;-85
2022/03/24 05:26:25;;;;;;;;;;;;;;;4.87;42.47;99159.05;1776389;80;24694;-86
2022/03/24 05:28:52;;;;;;;;;;;;;;;4.88;42.54;99160.30;1773870;80;20578;-85
2022/03/24 05:31:18;;;;;;;;;;;;;;;4.92;42.62;99163.17;1781781;80;24907;-85
2022/03/24 05:33:45;;;;;;;;;;;;;;;5.00;42.73;99162.91;1761003;80;21762;-86
2022/03/24 05:36:11;;;;;;;;;;;;;;;5.06;42.80;99165.30;1782553;80;26017;-85
2022/03/24 05:38:37;;;;;;;;;;;;;;;5.12;42.89;99164.23;1771511;80;24398;-84
2022/03/24 05:41:05;;;;;;;;;;;;;;;5.16;42.95;99164.50;1775790;80;20246;-85
2022/03/24 05:43:31;;;;;;;;;;;;;;;5.24;43.04;99172.39;1779498;80;24842;-85
2022/03/24 05:45:58;;;;;;;;;;;;;;;5.29;43.10;99165.28;1778617;80;22038;-84
2022/03/24 05:48:24;;;;;;;;;;;;;;;5.35;43.15;99173.29;1773526;80;26156;-85
2022/03/24 05:50:50;;;;;;;;;;;;;;;5.35;43.19;99170.25;1691943;84;24522;-85
2022/03/24 05:53:16;;;;;;;;;;;;;;;5.40;43.24;99173.52;1759678;81;20174;-84
2022/03/24 05:55:42;;;;;;;;;;;;;;;5.49;43.31;99176.23;1769752;80;25441;-85
2022/03/24 05:58:08;;;;;;;;;;;;;;;5.57;43.37;99178.53;1774122;80;20821;-85
2022/03/24 06:00:38;;;;;;;;;;;;;;;5.64;43.39;99178.70;1778307;80;26094;-85
2022/03/24 06:03:05;;;;;;;;;;;;;;;5.69;43.43;99178.06;1773476;80;24413;-85
2022/03/24 06:05:31;;;;;;;;;;;;;;;5.72;43.45;99180.56;1765273;81;20248;-85
2022/03/24 06:08:01;;;;;;;;;;;;;;;5.79;43.45;99180.70;1770438;79;24770;-86
2022/03/24 06:10:27;;;;;;;;;;;;;;;5.84;43.49;99184.81;1767406;81;21942;-85
2022/03/24 06:12:54;;;;;;;;;;;;;;;5.89;43.51;99192.48;1769882;81;26134;-85
2022/03/24 06:15:20;;;;;;;;;;;;;;;5.95;43.51;99187.48;1766167;81;24590;-85
2022/03/24 06:17:46;;;;;;;;;;;;;;;6.00;43.52;99188.98;1763638;81;20294;-85
2022/03/24 06:20:13;;;;;;;;;;;;;;;6.06;43.57;99191.80;1767995;81;24790;-85
2022/03/24 06:22:43;;;;;;;;;;;;;;;6.08;43.56;99188.70;1766152;81;22113;-86
2022/03/24 06:25:09;;;;;;;;;;;;;;;6.13;43.56;99188.06;1764976;81;25951;-85
2022/03/24 06:27:36;;;;;;;;;;;;;;;6.16;43.58;99191.41;1761446;81;20236;-85
2022/03/24 06:30:05;;;;;;;;;;;;;;;6.21;43.57;99193.36;1756050;80;20323;-85
2022/03/24 06:32:30;;;;;;;;;;;;;;;6.22;43.61;99192.43;1768803;80;25403;-85
2022/03/24 06:34:56;;;;;;;;;;;;;;;6.32;43.66;99190.78;1767517;80;21920;-85
2022/03/24 06:37:22;;;;;;;;;;;;;;;6.40;43.69;99192.59;1766605;80;21118;-86
2022/03/24 06:39:49;;;;;;;;;;;;;;;6.45;43.73;99195.41;1768880;81;24484;-85
2022/03/24 06:42:15;;;;;;;;;;;;;;;6.53;43.77;99197.25;1766070;80;20221;-86
2022/03/24 06:44:41;;;;;;;;;;;;;;;6.57;43.81;99196.66;1762514;81;25021;-85
2022/03/24 06:47:07;;;;;;;;;;;;;;;6.58;43.82;99194.00;1746524;80;20216;-86
2022/03/24 06:49:33;;;;;;;;;;;;;;;6.58;43.84;99191.85;1764125;80;21024;-85
2022/03/24 06:51:59;;;;;;;;;;;;;;;6.63;43.89;99195.11;1768660;80;25194;-84
2022/03/24 06:54:25;;;;;;;;;;;;;;;6.66;43.94;99189.31;1764851;81;20354;-85
2022/03/24 06:56:53;;;;;;;;;;;;;;;6.69;43.98;99193.55;1707153;81;24722;-85
2022/03/24 06:59:19;;;;;;;;;;;;;;;6.69;44.02;99199.60;1765049;81;21984;-86
2022/03/24 07:01:46;;;;;;;;;;;;;;;6.72;44.05;99202.06;1768422;81;26012;-85
2022/03/24 07:04:12;;;;;;;;;;;;;;;6.76;44.10;99202.80;1763066;79;24614;-85
2022/03/24 07:06:38;;;;;;;;;;;;;;;6.79;44.13;99210.45;1765442;81;20161;-85
2022/03/24 07:09:04;;;;;;;;;;;;;;;6.79;44.18;99209.16;1766159;80;20240;-85
2022/03/24 07:11:32;;;;;;;;;;;;;;;6.81;44.22;99210.41;1766301;81;20346;-86
2022/03/24 07:13:58;;;;;;;;;;;;;;;6.80;44.23;99212.16;1765094;80;25923;-86
2022/03/24 07:16:24;;;;;;;;;;;;;;;6.85;44.28;99212.80;1767926;81;20823;-85
2022/03/24 07:18:52;;;;;;;;;;;;;;;6.92;44.31;99213.39;1763584;80;20452;-85
2022/03/24 07:21:20;;;;;;;;;;;;;;;7.00;44.33;99214.75;1757186;81;26542;-85
2022/03/24 07:23:46;;;;;;;;;;;;;;;7.09;44.41;99210.44;1764636;80;21985;-85
2022/03/24 07:26:12;;;;;;;;;;;;;;;7.22;44.47;99208.61;1764854;81;26028;-85
2022/03/24 07:28:39;;;;;;;;;;;;;;;7.34;44.54;99210.67;1765242;81;25311;-85
2022/03/24 07:31:13;;;;;;;;;;;;;;;7.44;44.57;99214.56;1752971;81;20500;-85
2022/03/24 07:33:40;;;;;;;;;;;;;;;7.54;44.58;99206.72;1759902;80;24929;-86
2022/03/24 07:36:07;;;;;;;;;;;;;;;7.60;44.50;99211.66;1767660;80;21955;-84
2022/03/24 07:38:33;;;;;;;;;;;;;;;7.63;44.47;99210.23;1766535;81;25331;-84
2022/03/24 07:41:00;;;;;;;;;;;;;;;7.71;44.46;99211.16;1742017;80;24686;-84
2022/03/24 07:43:26;;;;;;;;;;;;;;;7.76;44.44;99207.88;1767959;80;20181;-84
2022/03/24 07:45:54;;;;;;;;;;;;;;;7.84;44.43;99201.42;1753437;80;24539;-84
2022/03/24 07:48:25;;;;;;;;;;;;;;;7.89;44.46;99211.17;1765061;81;21935;-85
2022/03/24 07:50:49;;;;;;;;;;;;;;;7.96;44.44;99213.04;1768649;81;26190;-85
2022/03/24 07:53:17;;;;;;;;;;;;;;;8.03;44.45;99203.99;1757674;80;24497;-85
2022/03/24 07:55:44;;;;;;;;;;;;;;;8.08;44.47;99207.68;1772358;80;20347;-85
2022/03/24 07:58:11;;;;;;;;;;;;;;;8.14;44.42;99207.39;1763628;81;24764;-85
2022/03/24 08:00:42;;;;;;;;;;;;;;;8.20;44.37;99205.80;1766222;81;21940;-85
2022/03/24 08:03:12;;;;;;;;;;;;;;;8.32;44.39;99213.08;1766655;81;25911;-86
2022/03/24 08:05:38;;;;;;;;;;;;;;;8.42;44.39;99216.08;1775160;79;24426;-85
2022/03/24 08:08:05;;;;;;;;;;;;;;;8.47;44.39;99211.02;1772027;79;20224;-85
2022/03/24 08:10:31;;;;;;;;;;;;;;;8.53;44.38;99213.79;1775467;79;24727;-85
2022/03/24 08:12:57;;;;;;;;;;;;;;;8.55;44.25;99214.11;1762232;79;22025;-86
2022/03/24 08:15:23;;;;;;;;;;;;;;;8.65;44.25;99212.73;1776156;80;26005;-86
2022/03/24 08:17:49;;;;;;;;;;;;;;;8.73;44.29;99210.57;1777999;80;24422;-86
2022/03/24 08:20:15;;;;;;;;;;;;;;;8.81;44.30;99211.05;1775434;80;20197;-85
2022/03/24 08:22:41;;;;;;;;;;;;;;;8.90;44.34;99223.23;1772209;80;24746;-86
2022/03/24 08:25:09;;;;;;;;;;;;;;;8.98;44.33;99225.02;1785536;80;20805;-85
2022/03/24 08:27:36;;;;;;;;;;;;;;;8.99;44.22;99225.40;1773257;79;26068;-85
2022/03/24 08:30:04;;;;;;;;;;;;;;;8.96;44.10;99223.77;1773146;79;24438;-86
2022/03/24 08:32:31;;;;;;;;;;;;;;;9.04;44.03;99215.56;1777672;79;20300;-85
2022/03/24 08:34:57;;;;;;;;;;;;;;;9.14;44.00;99211.09;1775801;79;24829;-85
2022/03/24 08:37:23;;;;;;;;;;;;;;;9.22;43.92;99212.83;1774036;79;20345;-86
2022/03/24 08:39:49;;;;;;;;;;;;;;;9.26;43.79;99213.54;1779880;79;25945;-86
2022/03/24 08:42:15;;;;;;;;;;;;;;;9.32;43.72;99217.14;1778683;79;24423;-85
2022/03/24 08:44:41;;;;;;;;;;;;;;;9.32;43.55;99215.84;1777512;79;20342;-86
2022/03/24 08:47:09;;;;;;;;;;;;;;;9.39;43.48;99214.56;1779435;79;20332;-86
2022/03/24 08:49:35;;;;;;;;;;;;;;;9.49;43.43;99217.07;1770924;79;21966;-85
2022/03/24 08:52:01;;;;;;;;;;;;;;;9.61;43.41;99215.13;1776157;79;25963;-85
2022/03/24 08:54:27;;;;;;;;;;;;;;;9.70;43.45;99217.72;1780842;79;20209;-86
2022/03/24 08:56:53;;;;;;;;;;;;;;;9.76;43.43;99219.16;1768419;79;20871;-86
2022/03/24 08:59:21;;;;;;;;;;;;;;;9.83;43.42;99215.27;1773010;79;24849;-86
2022/03/24 09:01:47;;;;;;;;;;;;;;;9.92;43.43;99218.71;1771611;79;22142;-85
2022/03/24 09:04:14;;;;;;;;;;;;;;;10.02;43.45;99222.05;1765944;79;21008;-84
2022/03/24 09:06:40;;;;;;;;;;;;;;;10.08;43.40;99225.63;1776749;79;24395;-85
2022/03/24 09:09:07;;;;;;;;;;;;;;;10.14;43.34;99221.84;1774685;79;20532;-84
2022/03/24 09:11:33;;;;;;;;;;;;;;;10.22;43.28;99220.11;1778848;79;24750;-85
2022/03/24 09:13:59;;;;;;;;;;;;;;;10.29;43.27;99226.23;1771811;79;20349;-85
2022/03/24 09:16:25;;;;;;;;;;;;;;;10.40;43.27;99223.02;1774604;79;21017;-85
2022/03/24 09:18:51;;;;;;;;;;;;;;;10.46;43.30;99222.21;1778871;79;25316;-85
2022/03/24 09:21:17;;;;;;;;;;;;;;;10.58;43.31;99227.67;1773992;79;20297;-85
2022/03/24 09:23:43;;;;;;;;;;;;;;;10.67;43.35;99232.38;1781561;79;20279;-85
2022/03/24 09:26:09;;;;;;;;;;;;;;;10.76;43.39;99235.77;1781809;79;20210;-85
2022/03/24 09:28:35;;;;;;;;;;;;;;;10.75;43.35;99227.52;1776248;79;26016;-85
2022/03/24 09:31:01;;;;;;;;;;;;;;;10.72;43.29;99229.88;1764646;79;20290;-85
2022/03/24 09:33:27;;;;;;;;;;;;;;;10.81;43.35;99228.48;1773214;79;20296;-86
2022/03/24 09:35:53;;;;;;;;;;;;;;;10.94;43.42;99236.02;1771165;79;24792;-86
2022/03/24 09:38:20;;;;;;;;;;;;;;;11.01;43.41;99232.11;1775590;79;20824;-86
2022/03/24 09:40:46;;;;;;;;;;;;;;;11.03;43.25;99234.16;1777751;79;26060;-86
2022/03/24 09:43:13;;;;;;;;;;;;;;;11.12;43.21;99231.48;1772526;79;24655;-84
2022/03/24 09:45:40;;;;;;;;;;;;;;;11.23;43.20;99231.69;1773959;79;20211;-84
2022/03/24 09:48:10;;;;;;;;;;;;;;;11.23;43.01;99236.92;1774860;79;25525;-85
2022/03/24 09:50:37;;;;;;;;;;;;;;;11.19;42.80;99232.31;1773826;79;22101;-85
2022/03/24 09:53:03;;;;;;;;;;;;;;;11.25;42.70;99225.86;1777733;79;27503;-84
2022/03/24 09:55:32;;;;;;;;;;;;;;;11.39;42.69;99231.60;1780737;79;24382;-84
2022/03/24 09:57:57;;;;;;;;;;;;;;;11.49;42.60;99234.03;1780215;79;20245;-85
2022/03/24 10:00:25;;;;;;;;;;;;;;;11.59;42.50;99233.38;1781138;79;24848;-85
2022/03/24 10:03:07;;;;;;;;;;;;;;;11.65;42.39;99233.47;1777738;79;22080;-85
2022/03/24 10:05:34;;;;;;;;;;;;;;;11.71;42.27;99227.86;1772073;79;26078;-84
2022/03/24 10:08:06;;;;;;;;;;;;;;;11.71;42.06;99235.72;1757031;79;25263;-83
2022/03/24 10:10:34;;;;;;;;;;;;;;;11.78;42.07;99229.20;1777736;79;21076;-85
2022/03/24 10:13:00;;;;;;;;;;;;;;;11.89;42.03;99229.84;1777195;79;25691;-84
2022/03/24 10:15:26;;;;;;;;;;;;;;;11.99;42.03;99234.42;1773496;79;22213;-85
2022/03/24 10:17:53;;;;;;;;;;;;;;;12.08;42.05;99236.45;1776447;79;20976;-85
2022/03/24 10:20:21;;;;;;;;;;;;;;;12.12;41.91;99241.02;1770378;79;24147;-85
2022/03/24 10:22:55;;;;;;;;;;;;;;;12.16;41.78;99237.30;1772373;79;20165;-85
2022/03/24 10:25:23;;;;;;;;;;;;;;;12.24;41.52;99242.03;1776385;79;25444;-85
2022/03/24 10:28:08;;;;;;;;;;;;;;;12.28;41.33;99235.17;1776674;79;22035;-87
2022/03/24 10:31:04;;;;;;;;;;;;;;;12.25;41.07;99231.45;1772894;79;26798;-85
2022/03/24 10:33:35;;;;;;;;;;;;;;;12.32;41.03;99225.34;1774886;79;24434;-85
2022/03/24 10:36:08;;;;;;;;;;;;;;;12.36;40.86;99228.98;1781081;79;20228;-85
2022/03/24 10:38:34;;;;;;;;;;;;;;;12.38;40.56;99228.39;1770752;79;25398;-85
2022/03/24 10:41:14;;;;;;;;;;;;;;;12.38;40.42;99230.20;1784794;79;22037;-85
2022/03/24 10:43:40;;;;;;;;;;;;;;;12.47;40.42;99223.87;1783027;79;26041;-86
2022/03/24 10:46:19;;;;;;;;;;;;;;;12.54;40.20;99222.55;1770029;79;20272;-86
2022/03/24 10:48:47;;;;;;;;;;;;;;;12.57;39.93;99224.95;1776972;79;20395;-86
2022/03/24 10:51:23;;;;;;;;;;;;;;;12.61;39.78;99219.48;1778877;79;25631;-86
2022/03/24 10:53:49;;;;;;;;;;;;;;;12.72;39.81;99223.56;1740275;79;22055;-85
2022/03/24 10:56:23;;;;;;;;;;;;;;;12.77;39.64;99218.38;1778136;79;25965;-86
2022/03/24 10:58:53;;;;;;;;;;;;;;;12.85;39.58;99216.10;1780760;79;25349;-86
2022/03/24 11:01:21;;;;;;;;;;;;;;;12.98;39.57;99214.32;1775282;79;20203;-86
2022/03/24 11:03:48;;;;;;;;;;;;;;;13.04;39.46;99215.69;1768599;79;25597;-85
2022/03/24 11:06:15;;;;;;;;;;;;;;;13.04;39.04;99216.20;1775832;79;22613;-84
2022/03/24 11:08:42;;;;;;;;;;;;;;;13.08;38.97;99217.20;1778033;79;26103;-85
2022/03/24 11:11:10;;;;;;;;;;;;;;;13.15;38.82;99209.74;1777999;79;24427;-85
2022/03/24 11:13:48;;;;;;;;;;;;;;;13.22;38.75;99213.64;1774045;79;20204;-85
2022/03/24 11:16:17;;;;;;;;;;;;;;;13.31;38.69;99208.59;1715595;83;25380;-86
2022/03/24 11:18:46;;;;;;;;;;;;;;;13.42;38.59;99199.16;1713922;83;22245;-86
2022/03/24 11:27:39;;;;;;;;;;;;;;;13.51;38.25;99199.81;1739480;81;20167;-85
2022/03/24 11:30:06;;;;;;;;;;;;;;;13.64;38.28;99191.42;1742445;81;24968;-85
2022/03/24 11:32:34;;;;;;;;;;;;;;;13.65;38.10;99193.95;1745264;81;22041;-85
2022/03/24 11:35:02;;;;;;;;;;;;;;;13.64;37.99;99190.11;1751902;81;26673;-84
2022/03/24 11:37:28;;;;;;;;;;;;;;;13.74;38.01;99189.38;1712747;83;24496;-85
2022/03/24 11:39:55;;;;;;;;;;;;;;;13.91;38.01;99189.47;1747282;81;20278;-85
2022/03/24 11:42:21;;;;;;;;;;;;;;;14.04;38.02;99190.75;1727883;81;25278;-85
2022/03/24 11:44:49;;;;;;;;;;;;;;;14.09;37.84;99188.62;1740336;81;20729;-86
2022/03/24 11:47:20;;;;;;;;;;;;;;;14.09;37.65;99186.84;1716788;83;26071;-85
2022/03/24 11:49:48;;;;;;;;;;;;;;;14.14;37.62;99186.03;1726861;82;24428;-86
2022/03/24 11:52:15;;;;;;;;;;;;;;;14.14;37.41;99180.77;1718793;82;20234;-86
2022/03/24 11:54:43;;;;;;;;;;;;;;;14.06;37.15;99176.55;1728977;82;24727;-86
2022/03/24 11:57:25;;;;;;;;;;;;;;;14.05;37.03;99181.91;1728395;82;22100;-86
2022/03/24 12:00:10;;;;;;;;;;;;;;;14.01;36.87;99181.78;1733549;82;25996;-85
2022/03/24 12:02:36;;;;;;;;;;;;;;;14.04;36.86;99169.70;1729295;80;24465;-87
2022/03/24 12:05:03;;;;;;;;;;;;;;;14.21;36.90;99168.00;1721011;82;20235;-87
2022/03/24 12:07:29;;;;;;;;;;;;;;;14.36;36.92;99164.72;1729422;82;23929;-86
2022/03/24 12:09:57;;;;;;;;;;;;;;;14.51;36.89;99164.95;1724318;82;22095;-85
2022/03/24 12:12:23;;;;;;;;;;;;;;;14.58;36.77;99160.89;1782391;79;26422;-85
2022/03/24 12:14:53;;;;;;;;;;;;;;;14.55;36.56;99164.61;1765944;79;24496;-86
2022/03/24 12:17:21;;;;;;;;;;;;;;;14.50;36.18;99161.95;1779715;79;20303;-86
2022/03/24 12:19:55;;;;;;;;;;;;;;;14.51;35.98;99156.55;1777287;79;24787;-86
2022/03/24 12:22:29;;;;;;;;;;;;;;;14.62;35.91;99158.38;1774374;79;22149;-86
2022/03/24 12:25:00;;;;;;;;;;;;;;;14.75;35.81;99156.52;1731087;80;26013;-86
2022/03/24 12:27:27;;;;;;;;;;;;;;;14.87;35.71;99150.80;1702912;83;24409;-85
2022/03/24 12:30:13;;;;;;;;;;;;;;;14.96;35.58;99152.25;1768276;79;20487;-85
2022/03/24 12:32:40;;;;;;;;;;;;;;;15.02;35.41;99153.58;1748736;79;24646;-85
2022/03/24 12:35:07;;;;;;;;;;;;;;;15.12;35.21;99148.44;1772745;79;21935;-85
2022/03/24 12:37:36;;;;;;;;;;;;;;;15.20;35.07;99149.55;1773355;79;26739;-86
2022/03/24 12:40:09;;;;;;;;;;;;;;;15.14;34.68;99147.37;1773573;79;24408;-86
2022/03/24 12:42:40;;;;;;;;;;;;;;;15.12;34.59;99147.12;1777945;79;20165;-85
2022/03/24 12:45:07;;;;;;;;;;;;;;;15.20;34.52;99144.27;1702503;83;25560;-86
2022/03/24 12:47:38;;;;;;;;;;;;;;;15.26;34.29;99139.84;1705371;83;22042;-86
2022/03/24 12:50:09;;;;;;;;;;;;;;;15.22;34.03;99134.93;1779819;79;25992;-85
2022/03/24 12:52:55;;;;;;;;;;;;;;;15.18;33.85;99134.31;1751486;79;24522;-86
2022/03/24 12:55:28;;;;;;;;;;;;;;;15.30;33.81;99133.84;1780554;79;20150;-85
2022/03/24 12:57:55;;;;;;;;;;;;;;;15.29;33.68;99135.63;1770695;79;24755;-85
2022/03/24 13:00:26;;;;;;;;;;;;;;;15.28;33.49;99135.74;1778669;79;22143;-86